To NAV CANADA Home Page Login to a new session Search on AWWS site Feedback and Comments Disclaimer Vers la page française équivalente Tips FAQ What's new on the site To the Forecasts and Observations / NOTAM section To "File a Flight Plan" website Publications and other links Update of the User's profile FIC Telephone Numbers My Weather Data Folder Route Weather Data Regional Weather Data Local Weather Data To the Forecasts and Observations / NOTAM section
Request Generated 06/26/2017 at 22:35:21 UTC . Weather information available at that time is displayed.

METAR/TAF

NORTH BATTLEFORD/SK    (show WxCam)

METAR CYQW 262200Z AUTO 14017G23KT 9SM CLR 25/11 A2981 RMK SLP098
DENSITY ALT 3400FT=
METAR CYQW 262100Z AUTO 14018G27KT 9SM CLR 25/11 A2985 RMK SLP113
DENSITY ALT 3400FT=
METAR CYQW 262000Z AUTO 14017G23KT 9SM CLR 22/10 A2990 RMK SLP131
DENSITY ALT 3000FT=

TAF CYQW 261738Z 2618/2706 15020G30KT P6SM BKN280
BECMG 2701/2703 12015G25KT
RMK FCST BASED ON AUTO OBS. NXT FCST BY 270000Z=
Your time UTC time
Weather data provided by Environment Canada and NAV CANADA